sensor_id;sensor_type;location;lat;lon;timestamp;pressure;altitude;pressure_sealevel;temperature;humidity
77871;BME280;67067;46.850;7.578;2023-01-31T00:01:04;96278.88;;;-1.00;50.37
77871;BME280;67067;46.850;7.578;2023-01-31T00:02:07;96283.78;;;-0.97;50.40
77871;BME280;67067;46.850;7.578;2023-01-31T00:03:07;96287.34;;;-0.98;50.44
77871;BME280;67067;46.850;7.578;2023-01-31T00:04:10;96286.38;;;-0.97;50.40
77871;BME280;67067;46.850;7.578;2023-01-31T00:05:11;96280.66;;;-1.01;50.37
77871;BME280;67067;46.850;7.578;2023-01-31T00:06:20;96283.84;;;-1.07;50.44
77871;BME280;67067;46.850;7.578;2023-01-31T00:07:23;96276.59;;;-1.03;50.41
77871;BME280;67067;46.850;7.578;2023-01-31T00:08:26;96286.69;;;-1.00;50.41
77871;BME280;67067;46.850;7.578;2023-01-31T00:09:27;96283.25;;;-1.01;50.37
77871;BME280;67067;46.850;7.578;2023-01-31T00:10:27;96282.13;;;-0.98;50.39
77871;BME280;67067;46.850;7.578;2023-01-31T00:11:29;96280.19;;;-0.96;50.46
77871;BME280;67067;46.850;7.578;2023-01-31T00:12:29;96274.25;;;-1.15;50.56
77871;BME280;67067;46.850;7.578;2023-01-31T00:13:30;96277.84;;;-1.07;50.92
77871;BME280;67067;46.850;7.578;2023-01-31T00:14:31;96272.50;;;-1.06;50.52
77871;BME280;67067;46.850;7.578;2023-01-31T00:15:34;96273.47;;;-1.07;50.67
77871;BME280;67067;46.850;7.578;2023-01-31T00:16:35;96273.16;;;-1.04;50.60
77871;BME280;67067;46.850;7.578;2023-01-31T00:17:36;96267.81;;;-1.02;50.64
77871;BME280;67067;46.850;7.578;2023-01-31T00:18:37;96272.53;;;-0.98;50.53
77871;BME280;67067;46.850;7.578;2023-01-31T00:19:37;96267.34;;;-0.98;50.63
77871;BME280;67067;46.850;7.578;2023-01-31T00:20:38;96263.63;;;-0.95;50.67
77871;BME280;67067;46.850;7.578;2023-01-31T00:21:38;96263.34;;;-0.92;50.64
77871;BME280;67067;46.850;7.578;2023-01-31T00:22:43;96258.47;;;-0.87;50.39
77871;BME280;67067;46.850;7.578;2023-01-31T00:23:44;96266.16;;;-0.85;50.61
77871;BME280;67067;46.850;7.578;2023-01-31T00:24:45;96260.31;;;-1.05;50.85
77871;BME280;67067;46.850;7.578;2023-01-31T00:25:48;96255.53;;;-0.92;50.63
77871;BME280;67067;46.850;7.578;2023-01-31T00:26:48;96253.28;;;-0.87;50.52
77871;BME280;67067;46.850;7.578;2023-01-31T00:27:57;96254.13;;;-0.86;50.40
77871;BME280;67067;46.850;7.578;2023-01-31T00:28:58;96257.72;;;-1.05;50.73
77871;BME280;67067;46.850;7.578;2023-01-31T00:30:01;96254.53;;;-0.99;50.60
77871;BME280;67067;46.850;7.578;2023-01-31T00:31:02;96251.25;;;-1.01;50.91
77871;BME280;67067;46.850;7.578;2023-01-31T00:32:03;96252.06;;;-1.01;50.82
77871;BME280;67067;46.850;7.578;2023-01-31T00:33:03;96238.91;;;-0.99;50.69
77871;BME280;67067;46.850;7.578;2023-01-31T00:34:07;96244.63;;;-0.96;50.74
77871;BME280;67067;46.850;7.578;2023-01-31T00:35:08;96243.16;;;-0.98;50.77
77871;BME280;67067;46.850;7.578;2023-01-31T00:36:11;96248.66;;;-1.01;50.81
77871;BME280;67067;46.850;7.578;2023-01-31T00:37:12;96251.56;;;-1.04;50.74
77871;BME280;67067;46.850;7.578;2023-01-31T00:38:13;96245.22;;;-1.02;50.95
77871;BME280;67067;46.850;7.578;2023-01-31T00:39:14;96244.44;;;-1.02;51.00
77871;BME280;67067;46.850;7.578;2023-01-31T00:40:18;96250.28;;;-1.00;50.87
77871;BME280;67067;46.850;7.578;2023-01-31T00:41:20;96250.13;;;-0.99;51.09
77871;BME280;67067;46.850;7.578;2023-01-31T00:42:21;96243.81;;;-0.96;51.03
77871;BME280;67067;46.850;7.578;2023-01-31T00:43:24;96240.91;;;-0.93;51.12
77871;BME280;67067;46.850;7.578;2023-01-31T00:44:24;96237.03;;;-0.89;50.97
77871;BME280;67067;46.850;7.578;2023-01-31T00:45:25;96242.06;;;-0.87;50.86
77871;BME280;67067;46.850;7.578;2023-01-31T00:46:26;96240.94;;;-0.85;50.75
77871;BME280;67067;46.850;7.578;2023-01-31T00:47:26;96240.28;;;-0.87;50.94
77871;BME280;67067;46.850;7.578;2023-01-31T00:48:27;96242.75;;;-0.85;50.77
77871;BME280;67067;46.850;7.578;2023-01-31T00:49:29;96231.22;;;-0.83;50.81
77871;BME280;67067;46.850;7.578;2023-01-31T00:50:32;96227.28;;;-0.87;50.68
77871;BME280;67067;46.850;7.578;2023-01-31T00:51:33;96229.88;;;-0.87;50.69
77871;BME280;67067;46.850;7.578;2023-01-31T00:52:33;96227.28;;;-0.87;50.90
77871;BME280;67067;46.850;7.578;2023-01-31T00:53:37;96226.19;;;-0.84;50.85
77871;BME280;67067;46.850;7.578;2023-01-31T00:54:37;96219.84;;;-0.82;50.62
77871;BME280;67067;46.850;7.578;2023-01-31T00:55:39;96217.91;;;-0.79;50.61
77871;BME280;67067;46.850;7.578;2023-01-31T00:56:42;96217.91;;;-0.79;50.56
77871;BME280;67067;46.850;7.578;2023-01-31T00:57:45;96217.91;;;-0.79;50.30
77871;BME280;67067;46.850;7.578;2023-01-31T00:58:45;96224.72;;;-0.78;50.56
77871;BME280;67067;46.850;7.578;2023-01-31T00:59:48;96220.97;;;-0.84;50.72
77871;BME280;67067;46.850;7.578;2023-01-31T01:00:48;96219.19;;;-0.84;50.70
77871;BME280;67067;46.850;7.578;2023-01-31T01:01:49;96222.75;;;-0.85;50.72
77871;BME280;67067;46.850;7.578;2023-01-31T01:02:50;96226.97;;;-0.84;50.81
77871;BME280;67067;46.850;7.578;2023-01-31T01:03:53;96220.66;;;-0.81;50.80
77871;BME280;67067;46.850;7.578;2023-01-31T01:04:54;96222.28;;;-0.80;50.57
77871;BME280;67067;46.850;7.578;2023-01-31T01:05:55;96217.91;;;-0.79;50.70
77871;BME280;67067;46.850;7.578;2023-01-31T01:06:55;96215.97;;;-0.77;50.65
77871;BME280;67067;46.850;7.578;2023-01-31T01:07:56;96218.00;;;-0.89;50.92
77871;BME280;67067;46.850;7.578;2023-01-31T01:08:57;96209.72;;;-0.93;50.83
77871;BME280;67067;46.850;7.578;2023-01-31T01:09:59;96212.00;;;-0.90;50.81
77871;BME280;67067;46.850;7.578;2023-01-31T01:11:15;96209.84;;;-0.94;50.85
77871;BME280;67067;46.850;7.578;2023-01-31T01:12:17;96210.50;;;-0.92;50.92
77871;BME280;67067;46.850;7.578;2023-01-31T01:13:18;96215.88;;;-0.94;51.05
77871;BME280;67067;46.850;7.578;2023-01-31T01:14:19;96219.44;;;-0.95;50.93
77871;BME280;67067;46.850;7.578;2023-01-31T01:15:21;96215.88;;;-0.94;50.93
77871;BME280;67067;46.850;7.578;2023-01-31T01:16:32;96218.63;;;-0.96;50.77
77871;BME280;67067;46.850;7.578;2023-01-31T01:17:35;96218.16;;;-0.91;50.68
77871;BME280;67067;46.850;7.578;2023-01-31T01:18:35;96223.06;;;-0.88;50.75
77871;BME280;67067;46.850;7.578;2023-01-31T01:19:38;96222.22;;;-0.88;50.64
77871;BME280;67067;46.850;7.578;2023-01-31T01:20:39;96218.81;;;-0.89;50.75
77871;BME280;67067;46.850;7.578;2023-01-31T01:21:39;96222.09;;;-0.87;50.76
77871;BME280;67067;46.850;7.578;2023-01-31T01:22:43;96226.47;;;-0.87;50.73
77871;BME280;67067;46.850;7.578;2023-01-31T01:23:44;96220.97;;;-0.84;50.71
77871;BME280;67067;46.850;7.578;2023-01-31T01:24:47;96218.22;;;-0.83;50.69
77871;BME280;67067;46.850;7.578;2023-01-31T01:25:48;96215.59;;;-0.83;50.75
77871;BME280;67067;46.850;7.578;2023-01-31T01:26:49;96219.03;;;-0.82;50.83
77871;BME280;67067;46.850;7.578;2023-01-31T01:27:49;96221.03;;;-0.76;50.65
77871;BME280;67067;46.850;7.578;2023-01-31T01:28:50;96217.59;;;-0.76;50.68
77871;BME280;67067;46.850;7.578;2023-01-31T01:29:53;96215.66;;;-0.74;50.74
77871;BME280;67067;46.850;7.578;2023-01-31T01:30:57;96214.69;;;-0.73;50.70
77871;BME280;67067;46.850;7.578;2023-01-31T01:32:00;96215.34;;;-0.71;50.71
77871;BME280;67067;46.850;7.578;2023-01-31T01:33:00;96210.78;;;-0.69;50.76
77871;BME280;67067;46.850;7.578;2023-01-31T01:34:06;96211.44;;;-0.67;50.67
77871;BME280;67067;46.850;7.578;2023-01-31T01:35:07;96211.13;;;-0.64;50.59
77871;BME280;67067;46.850;7.578;2023-01-31T01:36:10;96214.91;;;-0.58;50.66
77871;BME280;67067;46.850;7.578;2023-01-31T01:37:16;96208.88;;;-0.59;50.55
77871;BME280;67067;46.850;7.578;2023-01-31T01:38:19;96213.41;;;-0.61;50.64
77871;BME280;67067;46.850;7.578;2023-01-31T01:39:20;96222.84;;;-0.60;50.65
77871;BME280;67067;46.850;7.578;2023-01-31T01:40:21;96212.44;;;-0.60;50.65
77871;BME280;67067;46.850;7.578;2023-01-31T01:41:21;96216.84;;;-0.60;50.57
77871;BME280;67067;46.850;7.578;2023-01-31T01:42:25;96215.72;;;-0.58;50.66
77871;BME280;67067;46.850;7.578;2023-01-31T01:43:52;96214.56;;;-0.63;50.64
77871;BME280;67067;46.850;7.578;2023-01-31T01:44:58;96213.75;;;-0.56;50.48
77871;BME280;67067;46.850;7.578;2023-01-31T01:46:01;96213.75;;;-0.56;50.33
77871;BME280;67067;46.850;7.578;2023-01-31T01:47:01;96215.72;;;-0.58;50.37
77871;BME280;67067;46.850;7.578;2023-01-31T01:48:10;96218.31;;;-0.58;50.46
77871;BME280;67067;46.850;7.578;2023-01-31T01:49:34;96217.97;;;-0.63;50.47
77871;BME280;67067;46.850;7.578;2023-01-31T01:50:37;96223.75;;;-0.77;50.86
77871;BME280;67067;46.850;7.578;2023-01-31T01:51:39;96218.78;;;-0.62;50.61
77871;BME280;67067;46.850;7.578;2023-01-31T01:53:56;96226.44;;;-0.61;50.48
77871;BME280;67067;46.850;7.578;2023-01-31T01:55:06;96222.84;;;-0.60;50.34
77871;BME280;67067;46.850;7.578;2023-01-31T01:56:19;96235.19;;;-0.62;50.49
77871;BME280;67067;46.850;7.578;2023-01-31T01:57:26;96233.13;;;-0.58;50.54
77871;BME280;67067;46.850;7.578;2023-01-31T01:58:36;96227.41;;;-0.62;50.52
77871;BME280;67067;46.850;7.578;2023-01-31T01:59:49;96228.88;;;-0.59;50.33
77871;BME280;67067;46.850;7.578;2023-01-31T02:00:52;96231.84;;;-0.54;50.33
77871;BME280;67067;46.850;7.578;2023-01-31T02:01:54;96224.84;;;-0.54;50.31
77871;BME280;67067;46.850;7.578;2023-01-31T02:03:03;96230.84;;;-0.53;50.26
77871;BME280;67067;46.850;7.578;2023-01-31T02:04:06;96228.81;;;-0.49;50.22
77871;BME280;67067;46.850;7.578;2023-01-31T02:05:11;96230.44;;;-0.48;50.15
77871;BME280;67067;46.850;7.578;2023-01-31T02:06:15;96223.59;;;-0.49;50.17
77871;BME280;67067;46.850;7.578;2023-01-31T02:07:15;96220.03;;;-0.48;50.21
77871;BME280;67067;46.850;7.578;2023-01-31T02:08:18;96223.28;;;-0.46;50.11
77871;BME280;67067;46.850;7.578;2023-01-31T02:09:29;96217.53;;;-0.50;49.98
77871;BME280;67067;46.850;7.578;2023-01-31T02:11:42;96222.53;;;-0.57;49.95
77871;BME280;67067;46.850;7.578;2023-01-31T02:12:43;96218.94;;;-0.64;50.04
77871;BME280;67067;46.850;7.578;2023-01-31T02:13:46;96213.06;;;-0.66;49.98
77871;BME280;67067;46.850;7.578;2023-01-31T02:14:48;96220.41;;;-0.70;49.97
77871;BME280;67067;46.850;7.578;2023-01-31T02:15:55;96225.41;;;-0.68;49.97
77871;BME280;67067;46.850;7.578;2023-01-31T02:16:57;96221.69;;;-0.74;49.97
77871;BME280;67067;46.850;7.578;2023-01-31T02:17:58;96220.19;;;-0.76;50.14
77871;BME280;67067;46.850;7.578;2023-01-31T02:19:06;96224.91;;;-0.80;50.00
77871;BME280;67067;46.850;7.578;2023-01-31T02:21:58;96219.09;;;-1.00;49.85
77871;BME280;67067;46.850;7.578;2023-01-31T02:26:09;96223.81;;;-1.22;50.24
77871;BME280;67067;46.850;7.578;2023-01-31T02:32:55;96240.19;;;-1.48;50.33
77871;BME280;67067;46.850;7.578;2023-01-31T02:36:40;96240.56;;;-1.61;50.65
77871;BME280;67067;46.850;7.578;2023-01-31T02:39:37;96251.13;;;-1.62;50.76
77871;BME280;67067;46.850;7.578;2023-01-31T02:40:43;96253.06;;;-1.64;50.76
77871;BME280;67067;46.850;7.578;2023-01-31T02:42:15;96257.88;;;-1.70;50.73
77871;BME280;67067;46.850;7.578;2023-01-31T02:43:26;96263.38;;;-1.73;50.79
77871;BME280;67067;46.850;7.578;2023-01-31T02:44:58;96260.31;;;-1.86;50.87
77871;BME280;67067;46.850;7.578;2023-01-31T02:46:12;96248.69;;;-1.82;50.96
77871;BME280;67067;46.850;7.578;2023-01-31T02:47:26;96250.16;;;-1.79;51.06
77871;BME280;67067;46.850;7.578;2023-01-31T02:51:29;96243.34;;;-1.80;50.97
77871;BME280;67067;46.850;7.578;2023-01-31T02:52:42;96243.50;;;-1.82;51.02
77871;BME280;67067;46.850;7.578;2023-01-31T02:54:00;96241.88;;;-1.83;51.00
77871;BME280;67067;46.850;7.578;2023-01-31T02:56:30;96247.72;;;-1.81;50.99
77871;BME280;67067;46.850;7.578;2023-01-31T02:57:34;96244.00;;;-1.78;50.97
77871;BME280;67067;46.850;7.578;2023-01-31T02:58:37;96250.03;;;-1.78;50.95
77871;BME280;67067;46.850;7.578;2023-01-31T02:59:39;96251.78;;;-1.78;50.94
77871;BME280;67067;46.850;7.578;2023-01-31T03:00:44;96253.56;;;-1.79;51.05
77871;BME280;67067;46.850;7.578;2023-01-31T03:01:50;96250.16;;;-1.79;51.07
77871;BME280;67067;46.850;7.578;2023-01-31T03:02:55;96249.19;;;-1.78;50.96
77871;BME280;67067;46.850;7.578;2023-01-31T03:04:02;96252.09;;;-1.81;50.98
77871;BME280;67067;46.850;7.578;2023-01-31T03:05:06;96247.84;;;-1.82;51.20
77871;BME280;67067;46.850;7.578;2023-01-31T03:07:32;96243.78;;;-1.85;51.17
77871;BME280;67067;46.850;7.578;2023-01-31T03:08:42;96240.22;;;-1.84;51.06
77871;BME280;67067;46.850;7.578;2023-01-31T03:11:03;96240.78;;;-1.90;51.08
77871;BME280;67067;46.850;7.578;2023-01-31T03:13:27;96243.91;;;-2.05;51.43
77871;BME280;67067;46.850;7.578;2023-01-31T03:16:05;96238.25;;;-2.18;51.25
77871;BME280;67067;46.850;7.578;2023-01-31T03:19:08;96250.97;;;-2.25;51.42
77871;BME280;67067;46.850;7.578;2023-01-31T03:20:23;96246.75;;;-2.26;51.61
77871;BME280;67067;46.850;7.578;2023-01-31T03:21:41;96252.41;;;-2.31;52.08
77871;BME280;67067;46.850;7.578;2023-01-31T03:23:07;96243.50;;;-2.28;51.81
77871;BME280;67067;46.850;7.578;2023-01-31T03:24:11;96240.47;;;-2.23;51.87
77871;BME280;67067;46.850;7.578;2023-01-31T03:25:14;96246.31;;;-2.21;51.88
77871;BME280;67067;46.850;7.578;2023-01-31T03:26:18;96249.06;;;-2.23;51.93
77871;BME280;67067;46.850;7.578;2023-01-31T03:27:20;96243.75;;;-2.21;51.69
77871;BME280;67067;46.850;7.578;2023-01-31T03:28:33;96248.38;;;-2.25;51.89
77871;BME280;67067;46.850;7.578;2023-01-31T03:29:40;96245.06;;;-2.17;51.85
77871;BME280;67067;46.850;7.578;2023-01-31T03:30:50;96250.00;;;-2.24;51.69
77871;BME280;67067;46.850;7.578;2023-01-31T03:32:00;96247.28;;;-2.22;51.71
77871;BME280;67067;46.850;7.578;2023-01-31T03:33:24;96245.28;;;-2.29;51.73
77871;BME280;67067;46.850;7.578;2023-01-31T03:34:26;96253.44;;;-2.23;51.86
77871;BME280;67067;46.850;7.578;2023-01-31T03:35:28;96255.84;;;-2.40;51.98
77871;BME280;67067;46.850;7.578;2023-01-31T03:38:20;96264.53;;;-2.31;52.05
77871;BME280;67067;46.850;7.578;2023-01-31T03:40:44;96270.34;;;-2.19;51.92
77871;BME280;67067;46.850;7.578;2023-01-31T03:43:07;96270.13;;;-2.08;52.10
77871;BME280;67067;46.850;7.578;2023-01-31T03:44:18;96275.63;;;-2.11;52.39
77871;BME280;67067;46.850;7.578;2023-01-31T03:45:29;96261.09;;;-2.04;52.37
77871;BME280;67067;46.850;7.578;2023-01-31T03:46:42;96268.22;;;-2.06;52.48
77871;BME280;67067;46.850;7.578;2023-01-31T03:47:48;96263.28;;;-1.99;52.40
77871;BME280;67067;46.850;7.578;2023-01-31T03:48:53;96273.06;;;-1.93;52.31
77871;BME280;67067;46.850;7.578;2023-01-31T03:49:58;96268.38;;;-1.89;52.18
77871;BME280;67067;46.850;7.578;2023-01-31T03:51:05;96273.44;;;-1.88;52.21
77871;BME280;67067;46.850;7.578;2023-01-31T03:52:09;96271.50;;;-1.86;52.22
77871;BME280;67067;46.850;7.578;2023-01-31T03:53:25;96273.00;;;-1.83;52.19
77871;BME280;67067;46.850;7.578;2023-01-31T03:54:31;96279.84;;;-1.82;52.14
77871;BME280;67067;46.850;7.578;2023-01-31T03:55:39;96274.66;;;-1.82;52.00
77871;BME280;67067;46.850;7.578;2023-01-31T03:56:52;96273.69;;;-1.81;51.70
77871;BME280;67067;46.850;7.578;2023-01-31T03:57:59;96276.66;;;-1.76;51.63
77871;BME280;67067;46.850;7.578;2023-01-31T03:59:08;96277.75;;;-1.78;51.76
77871;BME280;67067;46.850;7.578;2023-01-31T04:00:13;96276.94;;;-1.79;51.57
77871;BME280;67067;46.850;7.578;2023-01-31T04:01:25;96276.28;;;-1.81;51.63
77871;BME280;67067;46.850;7.578;2023-01-31T04:02:33;96273.31;;;-1.86;51.48
77871;BME280;67067;46.850;7.578;2023-01-31T04:03:40;96276.84;;;-1.87;51.54
77871;BME280;67067;46.850;7.578;2023-01-31T04:05:00;96284.53;;;-1.95;51.57
77871;BME280;67067;46.850;7.578;2023-01-31T04:06:06;96289.31;;;-1.91;51.62
77871;BME280;67067;46.850;7.578;2023-01-31T04:07:08;96289.97;;;-1.89;51.60
77871;BME280;67067;46.850;7.578;2023-01-31T04:08:11;96295.97;;;-1.88;51.38
77871;BME280;67067;46.850;7.578;2023-01-31T04:09:12;96290.09;;;-1.90;51.34
77871;BME280;67067;46.850;7.578;2023-01-31T04:10:16;96291.06;;;-1.91;51.52
77871;BME280;67067;46.850;7.578;2023-01-31T04:11:22;96293.81;;;-1.93;51.44
77871;BME280;67067;46.850;7.578;2023-01-31T04:12:23;96290.09;;;-1.90;51.39
77871;BME280;67067;46.850;7.578;2023-01-31T04:13:24;96289.13;;;-1.89;51.51
77871;BME280;67067;46.850;7.578;2023-01-31T04:14:25;96292.41;;;-1.87;51.37
77871;BME280;67067;46.850;7.578;2023-01-31T04:15:28;96294.19;;;-1.88;51.52
77871;BME280;67067;46.850;7.578;2023-01-31T04:16:28;96298.97;;;-1.83;51.33
77871;BME280;67067;46.850;7.578;2023-01-31T04:17:32;96297.34;;;-1.84;51.54
77871;BME280;67067;46.850;7.578;2023-01-31T04:18:32;96297.59;;;-1.87;51.45
77871;BME280;67067;46.850;7.578;2023-01-31T04:19:33;96310.56;;;-1.87;51.57
77871;BME280;67067;46.850;7.578;2023-01-31T04:20:33;96299.81;;;-1.92;51.65
77871;BME280;67067;46.850;7.578;2023-01-31T04:21:34;96303.09;;;-1.90;51.64
77871;BME280;67067;46.850;7.578;2023-01-31T04:22:34;96298.44;;;-1.87;51.58
77871;BME280;67067;46.850;7.578;2023-01-31T04:23:35;96299.94;;;-1.84;51.50
77871;BME280;67067;46.850;7.578;2023-01-31T04:24:38;96298.00;;;-1.82;51.45
77871;BME280;67067;46.850;7.578;2023-01-31T04:25:38;96298.28;;;-1.85;51.55
77871;BME280;67067;46.850;7.578;2023-01-31T04:26:41;96290.78;;;-1.88;51.29
77871;BME280;67067;46.850;7.578;2023-01-31T04:27:44;96301.84;;;-1.86;51.39
77871;BME280;67067;46.850;7.578;2023-01-31T04:28:45;96304.44;;;-1.86;51.47
77871;BME280;67067;46.850;7.578;2023-01-31T04:29:48;96302.66;;;-1.86;51.43
77871;BME280;67067;46.850;7.578;2023-01-31T04:30:57;96304.03;;;-1.91;51.51
77871;BME280;67067;46.850;7.578;2023-01-31T04:31:57;96305.84;;;-1.92;51.65
77871;BME280;67067;46.850;7.578;2023-01-31T04:32:58;96309.22;;;-1.91;51.58
77871;BME280;67067;46.850;7.578;2023-01-31T04:33:58;96308.69;;;-1.85;51.75
77871;BME280;67067;46.850;7.578;2023-01-31T04:34:59;96305.13;;;-1.84;51.57
77871;BME280;67067;46.850;7.578;2023-01-31T04:36:04;96306.16;;;-1.77;51.40
77871;BME280;67067;46.850;7.578;2023-01-31T04:37:05;96297.41;;;-1.76;51.43
77871;BME280;67067;46.850;7.578;2023-01-31T04:38:05;96303.69;;;-1.78;51.48
77871;BME280;67067;46.850;7.578;2023-01-31T04:39:09;96301.41;;;-1.81;51.65
77871;BME280;67067;46.850;7.578;2023-01-31T04:40:13;96293.63;;;-1.81;51.61
77871;BME280;67067;46.850;7.578;2023-01-31T04:41:13;96305.78;;;-1.82;51.66
77871;BME280;67067;46.850;7.578;2023-01-31T04:42:14;96294.88;;;-1.86;51.77
77871;BME280;67067;46.850;7.578;2023-01-31T04:43:15;96299.53;;;-1.89;51.88
77871;BME280;67067;46.850;7.578;2023-01-31T04:44:15;96287.38;;;-1.89;51.88
77871;BME280;67067;46.850;7.578;2023-01-31T04:45:16;96283.69;;;-1.86;51.88
77871;BME280;67067;46.850;7.578;2023-01-31T04:46:17;96290.06;;;-1.80;51.86
77871;BME280;67067;46.850;7.578;2023-01-31T04:47:18;96292.34;;;-1.77;51.82
77871;BME280;67067;46.850;7.578;2023-01-31T04:48:18;96290.97;;;-1.72;51.86
77871;BME280;67067;46.850;7.578;2023-01-31T04:49:21;96292.06;;;-1.74;51.83
77871;BME280;67067;46.850;7.578;2023-01-31T04:50:24;96284.44;;;-1.76;51.76
77871;BME280;67067;46.850;7.578;2023-01-31T04:51:25;96292.50;;;-1.79;51.90
77871;BME280;67067;46.850;7.578;2023-01-31T04:52:25;96291.56;;;-1.78;51.82
77871;BME280;67067;46.850;7.578;2023-01-31T04:53:26;96287.03;;;-1.76;51.87
77871;BME280;67067;46.850;7.578;2023-01-31T04:54:26;96288.00;;;-1.77;51.91
77871;BME280;67067;46.850;7.578;2023-01-31T04:55:27;96290.44;;;-1.75;51.78
77871;BME280;67067;46.850;7.578;2023-01-31T04:56:30;96298.75;;;-1.72;51.69
77871;BME280;67067;46.850;7.578;2023-01-31T04:57:31;96291.25;;;-1.75;51.92
77871;BME280;67067;46.850;7.578;2023-01-31T04:58:32;96292.59;;;-1.71;51.80
77871;BME280;67067;46.850;7.578;2023-01-31T04:59:32;96301.72;;;-1.66;51.66
77871;BME280;67067;46.850;7.578;2023-01-31T05:00:33;96298.75;;;-1.72;51.71
77871;BME280;67067;46.850;7.578;2023-01-31T05:01:41;96287.41;;;-1.71;51.53
77871;BME280;67067;46.850;7.578;2023-01-31T05:02:42;96291.75;;;-1.71;51.59
77871;BME280;67067;46.850;7.578;2023-01-31T05:03:42;96292.59;;;-1.71;51.47
77871;BME280;67067;46.850;7.578;2023-01-31T05:04:45;96294.34;;;-1.71;51.56
77871;BME280;67067;46.850;7.578;2023-01-31T05:05:49;96298.47;;;-1.69;51.49
77871;BME280;67067;46.850;7.578;2023-01-31T05:06:50;96302.38;;;-1.64;51.45
77871;BME280;67067;46.850;7.578;2023-01-31T05:07:53;96294.44;;;-1.63;51.26
77871;BME280;67067;46.850;7.578;2023-01-31T05:08:54;96300.16;;;-1.59;51.22
77871;BME280;67067;46.850;7.578;2023-01-31T05:09:54;96306.44;;;-1.62;51.21
77871;BME280;67067;46.850;7.578;2023-01-31T05:11:02;96297.19;;;-1.64;51.29
77871;BME280;67067;46.850;7.578;2023-01-31T05:12:03;96300.47;;;-1.62;51.42
77871;BME280;67067;46.850;7.578;2023-01-31T05:13:04;96303.06;;;-1.62;51.28
77871;BME280;67067;46.850;7.578;2023-01-31T05:14:04;96299.50;;;-1.61;51.39
77871;BME280;67067;46.850;7.578;2023-01-31T05:15:08;96301.50;;;-1.55;51.48
77871;BME280;67067;46.850;7.578;2023-01-31T05:16:12;96307.22;;;-1.51;51.35
77871;BME280;67067;46.850;7.578;2023-01-31T05:17:13;96305.59;;;-1.52;51.35
77871;BME280;67067;46.850;7.578;2023-01-31T05:18:14;96305.84;;;-1.56;51.42
77871;BME280;67067;46.850;7.578;2023-01-31T05:19:16;96307.94;;;-1.59;51.49
77871;BME280;67067;46.850;7.578;2023-01-31T05:20:19;96302.28;;;-1.55;51.50
77871;BME280;67067;46.850;7.578;2023-01-31T05:21:20;96301.19;;;-1.52;51.36
77871;BME280;67067;46.850;7.578;2023-01-31T05:22:21;96303.50;;;-1.49;51.38
77871;BME280;67067;46.850;7.578;2023-01-31T05:23:21;96303.38;;;-1.47;51.33
77871;BME280;67067;46.850;7.578;2023-01-31T05:24:23;96302.22;;;-1.45;51.21
77871;BME280;67067;46.850;7.578;2023-01-31T05:25:26;96301.94;;;-1.42;51.38
77871;BME280;67067;46.850;7.578;2023-01-31T05:26:27;96305.19;;;-1.40;51.32
77871;BME280;67067;46.850;7.578;2023-01-31T05:27:27;96312.69;;;-1.36;51.22
77871;BME280;67067;46.850;7.578;2023-01-31T05:28:33;96308.47;;;-1.37;51.14
77871;BME280;67067;46.850;7.578;2023-01-31T05:29:33;96307.06;;;-1.32;51.29
77871;BME280;67067;46.850;7.578;2023-01-31T05:33:06;96316.56;;;-1.41;51.43
77871;BME280;67067;46.850;7.578;2023-01-31T05:34:07;96317.38;;;-1.40;51.49
77871;BME280;67067;46.850;7.578;2023-01-31T05:35:09;96322.41;;;-1.38;51.43
77871;BME280;67067;46.850;7.578;2023-01-31T05:36:12;96317.75;;;-1.35;51.37
77871;BME280;67067;46.850;7.578;2023-01-31T05:37:13;96318.41;;;-1.33;51.18
77871;BME280;67067;46.850;7.578;2023-01-31T05:38:19;96321.81;;;-1.32;51.25
77871;BME280;67067;46.850;7.578;2023-01-31T05:39:20;96317.59;;;-1.33;51.52
77871;BME280;67067;46.850;7.578;2023-01-31T05:40:24;96327.00;;;-1.32;51.25
77871;BME280;67067;46.850;7.578;2023-01-31T05:41:27;96316.91;;;-1.35;51.24
77871;BME280;67067;46.850;7.578;2023-01-31T05:42:27;96313.97;;;-1.41;51.43
77871;BME280;67067;46.850;7.578;2023-01-31T05:43:27;96318.06;;;-1.38;51.39
77871;BME280;67067;46.850;7.578;2023-01-31T05:44:28;96318.06;;;-1.38;51.53
77871;BME280;67067;46.850;7.578;2023-01-31T05:45:29;96323.09;;;-1.36;51.51
77871;BME280;67067;46.850;7.578;2023-01-31T05:46:32;96327.00;;;-1.32;51.44
77871;BME280;67067;46.850;7.578;2023-01-31T05:47:33;96320.19;;;-1.33;51.52
77871;BME280;67067;46.850;7.578;2023-01-31T05:48:33;96323.44;;;-1.31;51.55
77871;BME280;67067;46.850;7.578;2023-01-31T05:49:34;96323.00;;;-1.27;51.60
77871;BME280;67067;46.850;7.578;2023-01-31T05:50:35;96329.00;;;-1.26;51.50
77871;BME280;67067;46.850;7.578;2023-01-31T05:51:42;96328.72;;;-1.23;51.47
77871;BME280;67067;46.850;7.578;2023-01-31T05:52:51;96322.53;;;-1.22;51.32
77871;BME280;67067;46.850;7.578;2023-01-31T05:53:52;96329.69;;;-1.24;51.46
77871;BME280;67067;46.850;7.578;2023-01-31T05:54:56;96325.63;;;-1.27;51.56
77871;BME280;67067;46.850;7.578;2023-01-31T05:55:59;96320.19;;;-1.33;51.71
77871;BME280;67067;46.850;7.578;2023-01-31T05:57:02;96320.19;;;-1.33;51.73
77871;BME280;67067;46.850;7.578;2023-01-31T05:58:05;96316.63;;;-1.32;51.70
77871;BME280;67067;46.850;7.578;2023-01-31T05:59:06;96326.22;;;-1.33;51.69
77871;BME280;67067;46.850;7.578;2023-01-31T06:00:09;96318.91;;;-1.29;51.58
77871;BME280;67067;46.850;7.578;2023-01-31T06:01:13;96321.31;;;-1.36;51.71
77871;BME280;67067;46.850;7.578;2023-01-31T06:02:13;96326.50;;;-1.36;51.70
77871;BME280;67067;46.850;7.578;2023-01-31T06:03:16;96325.53;;;-1.35;51.71
77871;BME280;67067;46.850;7.578;2023-01-31T06:04:17;96327.84;;;-1.32;51.62
77871;BME280;67067;46.850;7.578;2023-01-31T06:05:17;96326.03;;;-1.31;51.55
77871;BME280;67067;46.850;7.578;2023-01-31T06:06:18;96322.78;;;-1.33;51.49
77871;BME280;67067;46.850;7.578;2023-01-31T06:07:19;96322.94;;;-1.35;51.55
77871;BME280;67067;46.850;7.578;2023-01-31T06:08:23;96326.03;;;-1.31;51.59
77871;BME280;67067;46.850;7.578;2023-01-31T06:09:26;96325.91;;;-1.30;51.35
77871;BME280;67067;46.850;7.578;2023-01-31T06:10:28;96326.88;;;-1.31;51.35
77871;BME280;67067;46.850;7.578;2023-01-31T06:11:29;96327.00;;;-1.32;51.51
77871;BME280;67067;46.850;7.578;2023-01-31T06:12:29;96330.44;;;-1.32;51.47
77871;BME280;67067;46.850;7.578;2023-01-31T06:13:31;96319.88;;;-1.30;51.35
77871;BME280;67067;46.850;7.578;2023-01-31T06:14:31;96326.03;;;-1.31;51.36